Springlake, TX (79082)

6:36 PM CDT on July 23, 2014 (GMT -0500)
WT_Meso Olton 6S (MONST2) Elev 3565 ft | 34.09 °N, 102.12 °W | Change Station

Current weather conditions updated 41 minutes ago

Mostly Cloudy
Mostly Cloudy
90 °F
Feels Like 89 °F
N
6
Wind Variable Wind from SE
Gusts 9.0 mph

Tomorrow is forecast to be Warmer than today.

Today
High -- | Low -- °F
--% Chance of Precip.
Yesterday
High -- | Low -- °F
Precip. -- in
6:53 AM 8:57 PM
Waning Crescent, 8% visible
Pressure 30.18 in
Visibility 10.0 miles
Clouds Clear
Heat Index 89 °F
Dew Point 58 °F
Humidity 34%
Rainfall -999.00 in
Snow Depth Not available.
UV 3 out of 12
Pollen 3.50 out of 12
Air Quality Not available.
Flu Activity Not available.
METAR KPVW 232315Z AUTO 10008KT 10SM CLR 32/16 A3018 RMK AO2 T03230163

More Conditions Fewer Conditions

Pressure 30.18 in
Visibility 10.0 miles
Clouds Clear
Heat Index 89 °F
Dew Point 58 °F
Humidity 34%
Rainfall -999.00 in
Snow Depth Not available.
UV 3 out of 12
Pollen 3.50 out of 12
Air Quality Not available.
Flu Activity Not available.
METAR KPVW 232315Z AUTO 10008KT 10SM CLR 32/16 A3018 RMK AO2 T03230163

More Conditions Fewer Conditions

10-Day Weather Forecast

Almanac

Astronomy

Jul. 23, 2014 Rise Set
Actual Time 6:53 AM CDT 8:57 PM CDT
Civil Twilight 6:25 AM CDT 9:25 PM CDT
Nautical Twilight 5:51 AM CDT 9:59 PM CDT
Astronomical Twilight 5:14 AM CDT 10:36 PM CDT
Moon 4:13 AM CDT 6:28 PM CDT
Length of Visible Light 14h 59m
Length of Day
14h 03m
Tomorrow will be 1m 22s shorter.
Waning Crescent, 8% of the Moon is Illuminated
Today
Waning Crescent
Jul 26
New
Aug 3
First Quarter
Aug 10
Full
Aug 17
Last Quarter

Today's Extremes

State Highs State Lows

Community

WunderPhotos

Upload Photos

1,736,817 photos uploaded!

Nearby

Snow Depth

Station Depth Elevation
No new snow has been reported.

Earthquake Activity

City Distance Mag. Time & Date
No recent earthquake activity has been reported nearby.
Minimum magnitude displayed is 2.5.

Coastal Water Temperatures

Place Temperature
No Stations Reporting

Nearby Weather Stations

Station Location Temp. Heat Index Dew Point Humidity Wind Precip. Elev Updated Type
WT_Meso Olton 6S, Olton, TX 90 °F 89 °F 58 °F 34% SE  at  6 mph 0.00 in / hr 3565 ft 5:55 PM CDT MADIS
WT_Meso Amherst 1NE, Amherst, TX 92 °F 90 °F 53 °F 27% SE  at  9 mph 0.00 in / hr 3646 ft 5:55 PM CDT MADIS
WT_Meso Hart 3N, Hart, TX 91 °F 89 °F 56 °F 30% ESE  at  6 mph 0.00 in / hr 3693 ft 5:55 PM CDT MADIS
West Bedford SMB, Dimmitt, TX 90.3 °F 90 °F 61 °F 38% ESE  at  0.0 mph 0.00 in / hr 3904 ft 6:36 PM CDT Rapid Fire
WT_Meso Dimmitt 2NE, Dimmitt, TX 89 °F 88 °F 59 °F 34% SSE  at  9 mph 0.00 in / hr 3875 ft 5:55 PM CDT MADIS
WT_Meso Muleshoe 2S, Muleshoe, TX 92 °F 89 °F 52 °F 25% East  at  10 mph 0.00 in / hr 3806 ft 5:55 PM CDT MADIS

Show More Stations Show Fewer Stations